AirNav   Everest Fuels
 
 513 users online  

WI99 Tru Field Airport
Edgerton, Wisconsin, USA

GOING TO EDGERTON?


FAA INFORMATION EFFECTIVE 26 JANUARY 2023

Location

FAA Identifier: WI99
Lat/Long: 42-53-07.5500N 089-07-17.8250W
42-53.125833N 089-07.297083W
42.8854306,-89.1216181
(estimated)
Elevation: 870 ft. / 265 m
From city: 4 miles NW of EDGERTON, WI
Time zone: UTC -6 (UTC -5 during Daylight Saving Time)
Zip code: 53534

Airport Operations

Airport use: Private use. Permission required prior to landing
Activation date: 06/2016
Control tower: no
ARTCC: CHICAGO CENTER
FSS: GREEN BAY FLIGHT SERVICE STATION
Attendance: 
Wind indicator: yes
Segmented circle: no

Airport Communications

WX AWOS-3 at JVL (16 nm S): PHONE 608-758-1723
WX ASOS at MSN (18 nm NW): PHONE 608-249-0615

Nearby radio navigation aids

VOR radial/distance  VOR name  Freq  Var
MSNr145/18.3MADISON VORTAC108.6003E
JVLr355/19.7JANESVILLE VOR/DME114.3003E
BAEr247/39.3BADGER VOR/DME116.4002E

 
NDB name  Hdg/Dist  Freq  Var  ID
ROCK RIVER226/24.537101WRYV .-. -.-- ...-

Airport Services

Runway Information

Runway 5/23

Dimensions: 2200 x 150 ft. / 671 x 46 m
Surface: turf
RUNWAY 5  RUNWAY 23
Traffic pattern: leftleft

Airport Ownership and Management from official FAA records

Ownership: Privately-owned
Owner: GARY TRULSON
727 OAK DRIVE
EDGERTON, WI 53534
Phone 608-443-9531
Manager: GARY TRULSON
727 OAK DRIVE
EDGERTON, WI 53534
Phone 608-443-9531
TRULSONG911@YAHOO.COM

Airport Operational Statistics

Aircraft based on the field: 1
Single engine airplanes: 1
    

Additional Remarks

FOR CD CTC CHICAGO ARTCC AT 630-906-8921.

Instrument Procedures

There are no published instrument procedures at WI99.

Some nearby airports with instrument procedures:

87Y - Blackhawk Airfield (13 nm N)
61C - Fort Atkinson Municipal Airport (14 nm E)
KJVL - Southern Wisconsin Regional Airport (16 nm S)
KMSN - Dane County Regional Airport-Truax Field (18 nm NW)
C29 - Middleton Municipal Airport - Morey Field (23 nm NW)
 
Loc | Ops | Rwys | IFR | FBO | Links
Com | Nav | Svcs | Stats | Notes
Aerial photo
No photo
 
Airport distance calculator
Flying to Tru Field Airport? Find the distance to fly.

From to WI99

Sunrise and sunset
Times for 27-Jan-2023
 Local
(UTC-6)
 Zulu
(UTC)
Morning civil twilight06:4712:47
Sunrise07:1713:17
Sunset17:0123:01
Evening civil twilight17:3223:32

Current date and time
Zulu (UTC)  27-Jan-2023 10:24:25
Local (UTC-6)  27-Jan-2023 04:24:25
 
METAR
KJVL 
17nm S 
270955Z AUTO 18012G15KT 10SM CLR M10/M12 A2984 RMK AO2
KMSN 
18nm NW 
270953Z AUTO 18010KT 10SM CLR M11/M15 A2978 RMK AO2 SLP101 T11111150
KC29 
23nm NW 
270955Z AUTO 17004KT 10SM SCT120 M09/M13 A2978 RMK AO1 T10911127
KRYV 
24nm NE 
270955Z AUTO 17005KT 10SM CLR M13/M16 A2982 RMK AO2 T11271157
KEFT 
27nm SW 
270955Z AUTO 19013KT 10SM CLR M12/M14 A2979 RMK AO2 T11181143
K57C 
33nm E 
270955Z AUTO 18004KT 10SM CLR M13/M15 A2986 RMK AO2 T11281155
TAF
KJVL 
17nm S 
270520Z 2706/2806 23008KT P6SM SKC FM270900 20010KT P6SM BKN020 FM271400 19017G30KT 5SM -SHSN BR OVC040 FM271600 20017G30KT 2SM -SHSN BR OVC015 FM272000 24015G25KT 6SM BR BKN014 FM280000 29015G25KT P6SM BKN060
KMSN 
18nm NW 
270628Z 2706/2806 22005KT P6SM SKC FM270700 22010KT P6SM BKN010 FM270900 18012KT P6SM SCT025 BKN120 FM271300 20014G27KT 1 1/2SM -SN OVC020 FM271700 20015G25KT 2SM -SN OVC015 FM271900 23015G23KT P6SM VCSH OVC011 FM280000 28014G24KT P6SM BKN040
NOTAMs
Click for the latest NOTAMs
NOTAMs are issued by the DoD/FAA and will open in a separate window not controlled by AirNav.

 

 
 

Would you like to see your business listed on this page?

 If your business provides an interesting product or service to pilots, flight crews, aircraft, or users of the Tru Field Airport, you should consider listing it here.  To start the listing process, click on the button below
 
Add a business
 

Other Pages about Tru Field Airport

Update a link
 
Copyright © AirNav, LLC. All rights reserved. Privacy Policy  Contact